Leeds, South Carolina
Current Conditions -  °F | °C
As of 4:15 PM on Thursday 18 Dec 2014 (Local Time) from KLUX Reporting Station
Scattered Clouds Scattered Clouds  
Wind Chill: 55°   Ceiling: Unl
Heat Index: 55°   Visibility: 10mi
Dew Point: 37°   Wind: 3mph
Humidity: 51%   Direction: 230°SW
Pressure: 30.07"   Gusts: NA
Location:  34.6017°N, 81.4953°W
Report Text: KLUX 182115Z AUTO 23003KT 10SM SCT060 13/03 A3007 RMK AO2
Loading
Personal Weather Stations






























Interactive Weather Map New forecast layout! Learn more

10-Day Weather Forecast

Advertisements
Track Severe Weather on mobile